Denver, Colorado
Traffic Map
Current Weather Conditions
Denver, Colorado
Overcast Light Snow
Overcast
18°
Feels Like: 5°
Wind Chill: Ceiling: 1200
Heat Index: 18° Visibility: 5mi
Dew Point: 16° Wind: 13mph
Humidity: 91% Direction: 10° (N)
Pressure: 29.82in Gusts: 0mph
Raw Report DataKBKF 240258Z 01011KT 5SM -SN BR BKN012 OVC017 M08/M09 A2982 RMK AO2A SNE012SNB30 SLP131 P0000 60000 T10791091 52034
Traffic Incident Summary
Active as of:
Severity:
Category:
InformationThere was an issue retrieving the traffic information for this location. Please try a different location or try again shortly.
Advertisements
Track Severe Weather on mobile